createdAt,value
2019-04-05T00:00:16.707Z,11.00
2019-04-05T00:02:46.158Z,11.60
2019-04-05T00:05:15.322Z,11.43
2019-04-05T00:07:44.870Z,11.57
2019-04-05T00:10:15.008Z,12.00
2019-04-05T00:12:44.293Z,11.43
2019-04-05T00:15:16.076Z,10.77
2019-04-05T00:17:44.835Z,11.83
2019-04-05T00:20:16.400Z,11.27
2019-04-05T00:22:45.578Z,10.97
2019-04-05T00:25:15.269Z,11.67
2019-04-05T00:27:44.489Z,11.63
2019-04-05T00:30:14.836Z,10.90
2019-04-05T00:32:43.996Z,11.63
2019-04-05T00:35:13.514Z,11.40
2019-04-05T00:37:43.038Z,10.43
2019-04-05T00:40:13.222Z,13.05
2019-04-05T00:42:42.387Z,11.17
2019-04-05T00:45:12.697Z,11.27
2019-04-05T00:47:42.180Z,11.73
2019-04-05T00:50:12.908Z,12.17
2019-04-05T00:52:42.166Z,10.83
2019-04-05T00:55:11.670Z,11.33
2019-04-05T00:57:41.998Z,11.07
2019-04-05T01:00:13.019Z,11.83
2019-04-05T01:02:42.478Z,11.20
2019-04-05T01:05:11.848Z,11.43
2019-04-05T01:07:41.246Z,11.17
2019-04-05T01:10:10.882Z,10.70
2019-04-05T01:12:40.535Z,11.23
2019-04-05T01:15:11.906Z,11.37
2019-04-05T01:17:41.998Z,10.80
2019-04-05T01:20:13.409Z,10.83
2019-04-05T01:22:44.703Z,10.90
2019-04-05T01:25:14.610Z,10.97
2019-04-05T01:27:44.025Z,11.67
2019-04-05T01:30:15.256Z,11.67
2019-04-05T01:32:44.717Z,11.60
2019-04-05T01:35:13.933Z,10.60
2019-04-05T01:37:43.719Z,10.07
2019-04-05T01:40:13.229Z,11.47
2019-04-05T01:42:43.130Z,11.60
2019-04-05T01:45:13.934Z,11.00
2019-04-05T01:47:43.410Z,11.40
2019-04-05T01:50:12.899Z,11.10
2019-04-05T01:52:43.240Z,10.60
2019-04-05T01:55:13.905Z,10.63
2019-04-05T01:57:43.080Z,11.20
2019-04-05T02:00:12.966Z,11.33
2019-04-05T02:02:42.867Z,10.70
2019-04-05T02:05:13.219Z,11.53
2019-04-05T02:07:42.504Z,10.30
2019-04-05T02:10:12.621Z,10.97
2019-04-05T02:12:42.283Z,11.17
2019-04-05T02:15:14.771Z,11.33
2019-04-05T02:17:45.300Z,11.70
2019-04-05T02:20:14.901Z,11.53
2019-04-05T02:22:44.457Z,10.57
2019-04-05T02:25:13.916Z,11.23
2019-04-05T02:27:43.584Z,11.00
2019-04-05T02:30:13.592Z,12.00
2019-04-05T02:32:42.890Z,10.60
2019-04-05T02:35:13.862Z,11.37
2019-04-05T02:37:43.401Z,11.73
2019-04-05T02:40:15.802Z,11.17
2019-04-05T02:42:47.708Z,11.83
2019-04-05T02:45:18.850Z,11.60
2019-04-05T02:47:54.326Z,11.17
2019-04-05T02:50:26.671Z,11.43
2019-04-05T02:52:59.058Z,11.57
2019-04-05T02:55:29.556Z,11.57
2019-04-05T02:58:00.243Z,11.60
2019-04-05T03:00:31.036Z,11.90
2019-04-05T03:03:04.207Z,11.03
2019-04-05T03:05:34.561Z,11.47
2019-04-05T03:08:05.710Z,11.17
2019-04-05T03:10:53.059Z,10.63
2019-04-05T03:13:24.407Z,10.73
2019-04-05T03:15:56.482Z,11.57
2019-04-05T03:18:28.734Z,10.73
2019-04-05T03:21:02.302Z,11.33
2019-04-05T03:23:34.868Z,11.37
2019-04-05T03:26:07.618Z,11.57
2019-04-05T03:28:39.868Z,10.80
2019-04-05T03:31:10.541Z,12.43
2019-04-05T03:33:40.445Z,10.77
2019-04-05T03:36:10.770Z,11.50
2019-04-05T03:38:41.143Z,12.10
2019-04-05T03:41:10.909Z,11.37
2019-04-05T03:43:40.967Z,11.23
2019-04-05T03:46:10.786Z,11.30
2019-04-05T03:48:40.123Z,11.63
2019-04-05T03:51:10.476Z,11.40
2019-04-05T03:53:40.154Z,11.67
2019-04-05T03:56:10.808Z,11.10
2019-04-05T03:58:40.112Z,11.90
2019-04-05T04:01:10.230Z,11.10
2019-04-05T04:03:39.574Z,11.70
2019-04-05T04:06:09.035Z,10.47
2019-04-05T04:08:39.710Z,11.10
2019-04-05T04:11:09.652Z,10.93
2019-04-05T04:13:39.845Z,11.30
2019-04-05T04:16:09.424Z,11.23
2019-04-05T04:18:39.793Z,11.60
2019-04-05T04:21:28.172Z,11.23
2019-04-05T04:23:58.002Z,11.27
2019-04-05T04:26:27.505Z,11.43
2019-04-05T04:28:58.664Z,10.70
2019-04-05T04:31:28.610Z,11.40
2019-04-05T04:33:58.531Z,10.43
2019-04-05T04:36:28.399Z,10.33
2019-04-05T04:38:58.310Z,9.97
2019-04-05T04:41:27.534Z,10.23
2019-04-05T04:43:57.758Z,10.83
2019-04-05T04:46:28.516Z,10.60
2019-04-05T04:48:58.915Z,10.20
2019-04-05T04:51:29.558Z,10.50
2019-04-05T04:53:59.924Z,10.80
2019-04-05T04:56:29.443Z,10.33
2019-04-05T04:58:59.335Z,10.27
2019-04-05T05:01:31.339Z,10.87
2019-04-05T05:04:01.583Z,11.73
2019-04-05T05:06:31.479Z,10.63
2019-04-05T05:09:01.353Z,9.73
2019-04-05T05:11:30.737Z,11.63
2019-04-05T05:14:00.438Z,11.00
2019-04-05T05:16:30.113Z,11.20
2019-04-05T05:19:00.263Z,11.57
2019-04-05T05:21:30.154Z,10.53
2019-04-05T05:23:59.695Z,11.43
2019-04-05T05:26:29.959Z,10.40
2019-04-05T05:28:59.403Z,10.73
2019-04-05T05:31:28.921Z,10.97
2019-04-05T05:33:58.392Z,10.97
2019-04-05T05:36:28.043Z,10.77
2019-04-05T05:38:57.596Z,10.73
2019-04-05T05:41:27.165Z,10.70
2019-04-05T05:43:56.772Z,10.27
2019-04-05T05:46:26.075Z,10.47
2019-04-05T05:48:55.939Z,10.97
2019-04-05T05:51:25.845Z,11.17
2019-04-05T05:53:55.131Z,11.40
2019-04-05T05:56:24.834Z,10.87
2019-04-05T05:58:58.846Z,11.27
2019-04-05T06:01:25.181Z,10.93
2019-04-05T06:03:54.724Z,11.30
2019-04-05T06:06:25.021Z,11.53
2019-04-05T06:08:55.595Z,12.00
2019-04-05T06:11:25.178Z,11.17
2019-04-05T06:13:54.331Z,10.97
2019-04-05T06:16:23.839Z,11.43
2019-04-05T06:18:53.058Z,11.53
2019-04-05T06:21:22.402Z,11.57
2019-04-05T06:23:51.747Z,12.80
2019-04-05T06:26:20.989Z,12.00
2019-04-05T06:28:50.619Z,11.70
2019-04-05T06:31:20.464Z,12.07
2019-04-05T06:33:49.933Z,12.47
2019-04-05T06:36:19.104Z,11.43
2019-04-05T06:38:48.714Z,12.07
2019-04-05T06:41:18.095Z,12.50
2019-04-05T06:43:47.673Z,11.73
2019-04-05T06:46:17.091Z,11.80
2019-04-05T06:48:46.535Z,12.67
2019-04-05T06:51:18.574Z,12.10
2019-04-05T06:53:48.131Z,13.27
2019-04-05T06:56:17.529Z,11.67
2019-04-05T06:58:47.105Z,12.37
2019-04-05T07:01:16.720Z,11.77
2019-04-05T07:03:46.036Z,12.37
2019-04-05T07:06:15.195Z,12.90
2019-04-05T07:08:53.743Z,13.20
2019-04-05T07:11:15.777Z,12.57
2019-04-05T07:13:45.005Z,11.80
2019-04-05T07:16:14.417Z,11.97
2019-04-05T07:18:43.877Z,12.63
2019-04-05T07:21:13.047Z,13.80
2019-04-05T07:23:42.585Z,12.23
2019-04-05T07:26:13.215Z,12.33
2019-04-05T07:28:42.387Z,12.00
2019-04-05T07:31:12.071Z,12.50
2019-04-05T07:33:41.318Z,12.10
2019-04-05T07:36:10.668Z,11.87
2019-04-05T07:38:39.960Z,13.80
2019-04-05T07:41:09.425Z,13.17
2019-04-05T07:43:38.585Z,12.53
2019-04-05T07:46:08.231Z,12.47
2019-04-05T07:48:44.672Z,12.87
2019-04-05T07:51:08.674Z,14.07
2019-04-05T07:53:38.246Z,13.70
2019-04-05T07:56:07.753Z,14.63
2019-04-05T07:58:37.205Z,13.20
2019-04-05T08:01:06.735Z,14.07
2019-04-05T08:03:36.381Z,12.93
2019-04-05T08:06:05.858Z,13.53
2019-04-05T08:08:56.417Z,13.33
2019-04-05T08:11:27.731Z,12.83
2019-04-05T08:14:00.074Z,13.57
2019-04-05T08:16:29.650Z,12.63
2019-04-05T08:18:59.442Z,13.87
2019-04-05T08:21:29.019Z,13.67
2019-04-05T08:23:58.574Z,13.87
2019-04-05T08:26:28.033Z,13.43
2019-04-05T08:28:57.677Z,13.90
2019-04-05T08:31:27.196Z,12.80
2019-04-05T08:33:56.696Z,13.10
2019-04-05T08:36:26.050Z,13.87
2019-04-05T08:38:55.397Z,13.60
2019-04-05T08:41:24.815Z,14.33
2019-04-05T08:43:54.231Z,13.87
2019-04-05T08:46:23.850Z,14.30
2019-04-05T08:48:53.214Z,14.60
2019-04-05T08:51:22.607Z,14.70
2019-04-05T08:53:51.872Z,14.77
2019-04-05T08:56:21.218Z,14.70
2019-04-05T08:58:50.498Z,14.73
2019-04-05T09:01:19.822Z,14.87
2019-04-05T09:03:49.185Z,15.80
2019-04-05T09:06:18.468Z,14.80
2019-04-05T09:08:47.861Z,14.70
2019-04-05T09:11:17.149Z,15.27
2019-04-05T09:13:46.519Z,14.67
2019-04-05T09:16:15.970Z,13.93
2019-04-05T09:18:49.310Z,14.77
2019-04-05T09:21:17.888Z,15.07
2019-04-05T09:23:47.349Z,13.97
2019-04-05T09:26:16.631Z,14.20
2019-04-05T09:28:45.948Z,15.47
2019-04-05T09:31:15.295Z,14.80
2019-04-05T09:33:44.579Z,14.83
2019-04-05T09:36:13.991Z,13.20
2019-04-05T09:38:43.351Z,14.80
2019-04-05T09:41:12.652Z,13.93
2019-04-05T09:43:41.940Z,13.70
2019-04-05T09:46:11.436Z,13.97
2019-04-05T09:48:40.788Z,14.53
2019-04-05T09:51:10.398Z,14.20
2019-04-05T09:53:39.719Z,14.13
2019-04-05T09:56:09.219Z,13.77
2019-04-05T09:58:38.625Z,14.40
2019-04-05T10:01:08.026Z,13.47
2019-04-05T10:03:37.385Z,14.27
2019-04-05T10:06:06.791Z,14.07
2019-04-05T10:08:36.126Z,14.47
2019-04-05T10:11:05.763Z,13.20
2019-04-05T10:13:35.047Z,13.73
2019-04-05T10:16:04.448Z,14.87
2019-04-05T10:18:33.732Z,14.60
2019-04-05T10:21:03.076Z,14.17
2019-04-05T10:23:32.399Z,14.27
2019-04-05T10:26:01.672Z,14.30
2019-04-05T10:28:30.951Z,13.20
2019-04-05T10:31:00.422Z,14.17
2019-04-05T10:33:30.775Z,14.10
2019-04-05T10:36:00.051Z,13.83
2019-04-05T10:38:29.367Z,14.10
2019-04-05T10:40:58.647Z,13.93
2019-04-05T10:43:27.995Z,14.37
2019-04-05T10:45:57.318Z,13.80
2019-04-05T10:48:26.638Z,14.37
2019-04-05T10:50:56.079Z,14.73
2019-04-05T10:53:25.395Z,14.10
2019-04-05T10:55:54.671Z,13.37
2019-04-05T10:58:24.321Z,14.33
2019-04-05T11:00:54.224Z,12.83
2019-04-05T11:03:24.428Z,13.57
2019-04-05T11:05:53.996Z,13.57
2019-04-05T11:08:23.558Z,13.40
2019-04-05T11:10:53.063Z,13.50
2019-04-05T11:13:22.614Z,13.27
2019-04-05T11:15:52.015Z,14.17
2019-04-05T11:18:21.534Z,14.10
2019-04-05T11:20:50.904Z,13.67
2019-04-05T11:23:21.392Z,13.93
2019-04-05T11:25:51.964Z,13.53
2019-04-05T11:28:21.129Z,12.37
2019-04-05T11:30:50.737Z,12.33
2019-04-05T11:33:20.464Z,13.70
2019-04-05T11:35:50.412Z,13.40
2019-04-05T11:38:24.098Z,12.83
2019-04-05T11:40:53.873Z,12.53
2019-04-05T11:43:26.949Z,12.70
2019-04-05T11:45:56.566Z,12.67
2019-04-05T11:48:25.929Z,13.53
2019-04-05T11:50:58.032Z,13.20
2019-04-05T11:53:27.586Z,13.43
2019-04-05T11:55:56.743Z,12.67
2019-04-05T11:58:26.299Z,13.03
2019-04-05T12:01:00.095Z,13.43
2019-04-05T12:03:30.941Z,12.73
2019-04-05T12:06:00.487Z,12.67
2019-04-05T12:08:29.930Z,13.43
2019-04-05T12:10:59.105Z,12.90
2019-04-05T12:13:28.588Z,13.00
2019-04-05T12:15:58.403Z,12.97
2019-04-05T12:18:27.953Z,13.67
2019-04-05T12:21:00.357Z,13.10
2019-04-05T12:23:28.212Z,13.57
2019-04-05T12:25:58.111Z,13.57
2019-04-05T12:28:27.397Z,13.13
2019-04-05T12:30:56.914Z,12.43
2019-04-05T12:33:26.142Z,12.77
2019-04-05T12:35:56.685Z,13.40
2019-04-05T12:38:48.366Z,12.03
2019-04-05T12:41:18.308Z,12.73
2019-04-05T12:43:50.645Z,11.90
2019-04-05T12:46:18.743Z,12.63
2019-04-05T12:48:48.292Z,12.07
2019-04-05T12:51:17.438Z,12.90
2019-04-05T12:53:46.834Z,13.47
2019-04-05T12:56:16.042Z,12.20
2019-04-05T12:58:45.443Z,12.33
2019-04-05T13:01:14.670Z,12.40
2019-04-05T13:03:44.087Z,12.57
2019-04-05T13:06:13.557Z,12.40
2019-04-05T13:08:42.800Z,12.73
2019-04-05T13:11:13.085Z,12.03
2019-04-05T13:13:42.326Z,11.80
2019-04-05T13:16:11.735Z,13.20
2019-04-05T13:18:40.932Z,12.13
2019-04-05T13:21:15.035Z,11.67
2019-04-05T13:23:41.727Z,12.53
2019-04-05T13:26:12.231Z,11.53
2019-04-05T13:28:42.259Z,11.97
2019-04-05T13:31:11.714Z,12.13
2019-04-05T13:33:41.023Z,11.90
2019-04-05T13:36:12.124Z,12.13
2019-04-05T13:38:54.009Z,12.20
2019-04-05T13:41:13.644Z,11.50
2019-04-05T13:43:43.126Z,12.37
2019-04-05T13:46:21.741Z,11.57
2019-04-05T13:48:43.773Z,12.10
2019-04-05T13:51:13.262Z,11.33
2019-04-05T13:53:42.433Z,12.50
2019-04-05T13:56:12.071Z,11.90
2019-04-05T13:58:41.632Z,11.83
2019-04-05T14:01:11.433Z,11.90
2019-04-05T14:03:40.847Z,11.40
2019-04-05T14:06:10.851Z,11.23
2019-04-05T14:08:41.817Z,11.23
2019-04-05T14:11:12.129Z,12.33
2019-04-05T14:13:42.985Z,11.87
2019-04-05T14:16:13.001Z,11.40
2019-04-05T14:18:49.344Z,11.33
2019-04-05T14:21:13.871Z,11.70
2019-04-05T14:23:43.380Z,12.03
2019-04-05T14:26:12.758Z,11.93
2019-04-05T14:28:41.975Z,11.13
2019-04-05T14:31:11.301Z,11.63
2019-04-05T14:33:40.621Z,11.77
2019-04-05T14:36:10.404Z,11.27
2019-04-05T14:38:39.681Z,10.77
2019-04-05T14:41:09.133Z,11.23
2019-04-05T14:43:38.301Z,11.33
2019-04-05T14:46:07.840Z,11.50
2019-04-05T14:48:37.317Z,11.77
2019-04-05T14:51:06.706Z,10.23
2019-04-05T14:53:35.933Z,10.20
2019-04-05T14:56:05.426Z,10.67
2019-04-05T14:58:34.807Z,10.77
2019-04-05T15:01:04.118Z,10.60
2019-04-05T15:03:34.347Z,11.67
2019-04-05T15:06:03.801Z,11.23
2019-04-05T15:08:33.234Z,10.67
2019-04-05T15:11:02.510Z,11.43
2019-04-05T15:13:31.851Z,11.70
2019-04-05T15:16:01.081Z,10.77
2019-04-05T15:18:30.494Z,11.43
2019-04-05T15:21:00.334Z,11.43
2019-04-05T15:23:29.519Z,10.73
2019-04-05T15:25:59.161Z,11.20
2019-04-05T15:28:28.480Z,9.33
2019-04-05T15:30:57.701Z,10.13
2019-04-05T15:33:27.763Z,11.23
2019-04-05T15:36:02.211Z,10.73
2019-04-05T15:38:31.321Z,10.37
2019-04-05T15:41:00.541Z,10.90
2019-04-05T15:43:30.011Z,10.37
2019-04-05T15:45:59.178Z,10.63
2019-04-05T15:48:28.652Z,11.07
2019-04-05T15:50:59.274Z,11.33
2019-04-05T15:53:31.637Z,11.47
2019-04-05T15:56:03.903Z,11.87
2019-04-05T15:58:34.026Z,11.50
2019-04-05T16:01:04.440Z,11.23
2019-04-05T16:03:36.979Z,11.33
2019-04-05T16:06:06.126Z,12.33
2019-04-05T16:08:35.301Z,12.30
2019-04-05T16:11:05.728Z,11.90
2019-04-05T16:13:35.126Z,10.80
2019-04-05T16:16:04.368Z,11.63
2019-04-05T16:18:34.609Z,12.10
2019-04-05T16:21:04.447Z,10.73
2019-04-05T16:23:34.787Z,11.50
2019-04-05T16:26:04.382Z,10.50
2019-04-05T16:28:34.616Z,11.23
2019-04-05T16:31:04.144Z,11.50
2019-04-05T16:33:33.972Z,12.30
2019-04-05T16:36:03.269Z,11.13
2019-04-05T16:38:32.672Z,11.30
2019-04-05T16:41:02.186Z,10.87
2019-04-05T16:43:31.659Z,11.23
2019-04-05T16:46:02.931Z,11.73
2019-04-05T16:48:32.299Z,11.67
2019-04-05T16:51:01.464Z,11.80
2019-04-05T16:53:31.606Z,11.30
2019-04-05T16:56:00.829Z,12.23
2019-04-05T16:58:29.984Z,11.80
2019-04-05T17:00:59.473Z,12.10
2019-04-05T17:03:29.004Z,11.63
2019-04-05T17:05:58.516Z,11.77
2019-04-05T17:08:28.058Z,11.50
2019-04-05T17:10:57.444Z,11.23
2019-04-05T17:13:26.682Z,11.17
2019-04-05T17:15:56.155Z,11.10
2019-04-05T17:18:25.549Z,10.90
2019-04-05T17:20:54.730Z,10.97
2019-04-05T17:23:24.191Z,12.10
2019-04-05T17:25:53.342Z,12.30
2019-04-05T17:28:22.505Z,11.67
2019-04-05T17:30:51.785Z,10.00
2019-04-05T17:33:21.017Z,11.33
2019-04-05T17:35:50.187Z,11.80
2019-04-05T17:38:19.398Z,12.00
2019-04-05T17:40:49.326Z,12.17
2019-04-05T17:43:18.541Z,11.43
2019-04-05T17:45:47.817Z,12.10
2019-04-05T17:48:16.969Z,12.00
2019-04-05T17:50:46.144Z,11.57
2019-04-05T17:53:15.610Z,11.60
2019-04-05T17:55:45.350Z,11.50
2019-04-05T17:58:16.388Z,12.87
2019-04-05T18:00:46.000Z,11.87
2019-04-05T18:03:15.846Z,11.97
2019-04-05T18:05:45.102Z,11.43
2019-04-05T18:08:14.642Z,12.30
2019-04-05T18:10:43.794Z,11.80
2019-04-05T18:13:12.953Z,12.87
2019-04-05T18:15:51.924Z,12.27
2019-04-05T18:18:13.222Z,12.03
2019-04-05T18:20:43.556Z,11.73
2019-04-05T18:23:24.334Z,11.60
2019-04-05T18:25:43.612Z,12.33
2019-04-05T18:28:12.780Z,16.10
2019-04-05T18:30:42.055Z,13.70
2019-04-05T18:33:11.486Z,12.47
2019-04-05T18:35:40.658Z,12.30
2019-04-05T18:38:10.054Z,12.00
2019-04-05T18:40:40.545Z,12.57
2019-04-05T18:43:10.425Z,11.90
2019-04-05T18:45:39.647Z,12.57
2019-04-05T18:48:08.870Z,12.60
2019-04-05T18:50:38.119Z,11.30
2019-04-05T18:53:07.773Z,12.63
2019-04-05T18:55:37.087Z,12.53
2019-04-05T18:58:06.331Z,12.73
2019-04-05T19:00:35.726Z,12.03
2019-04-05T19:03:05.199Z,12.67
2019-04-05T19:05:34.367Z,13.20
2019-04-05T19:08:03.907Z,13.03
2019-04-05T19:10:37.362Z,17.73
2019-04-05T19:13:04.836Z,13.67
2019-04-05T19:15:34.043Z,12.40
2019-04-05T19:18:03.594Z,12.70
2019-04-05T19:20:32.964Z,13.53
2019-04-05T19:23:02.520Z,12.67
2019-04-05T19:25:33.605Z,12.90
2019-04-05T19:28:02.846Z,12.43
2019-04-05T19:50:45.768Z,15.60
2019-04-05T19:53:14.990Z,14.60
2019-04-05T19:55:44.507Z,15.60
2019-04-05T19:58:13.981Z,14.20
2019-04-05T20:00:43.205Z,15.87
2019-04-05T20:03:12.781Z,15.47
2019-04-05T20:05:42.166Z,15.13
2019-04-05T20:08:12.460Z,15.37
2019-04-05T20:10:41.946Z,15.33
2019-04-05T20:13:11.493Z,15.03
2019-04-05T20:15:41.748Z,14.87
2019-04-05T20:18:10.955Z,15.47
2019-04-05T20:20:43.201Z,14.67
2019-04-05T20:23:12.689Z,14.87
2019-04-05T20:25:43.073Z,15.87
2019-04-05T20:28:12.826Z,14.27
2019-04-05T20:30:43.279Z,15.57
2019-04-05T20:33:12.538Z,14.63
2019-04-05T20:35:41.873Z,14.37
2019-04-05T20:38:12.375Z,12.80
2019-04-05T20:40:42.553Z,13.90
2019-04-05T20:43:12.105Z,14.47
2019-04-05T20:45:41.616Z,13.77
2019-04-05T20:48:10.817Z,14.27
2019-04-05T20:50:40.999Z,14.37
2019-04-05T20:53:10.735Z,13.47
2019-04-05T20:55:41.233Z,14.20
2019-04-05T20:58:10.899Z,13.77
2019-04-05T21:00:40.215Z,14.40
2019-04-05T21:03:12.238Z,14.00
2019-04-05T21:05:41.670Z,13.00
2019-04-05T21:08:10.940Z,13.47
2019-04-05T21:10:40.322Z,13.53
2019-04-05T21:13:09.881Z,13.67
2019-04-05T21:15:39.297Z,12.27
2019-04-05T21:18:10.763Z,12.53
2019-04-05T21:20:44.114Z,12.67
2019-04-05T21:23:13.548Z,12.60
2019-04-05T21:25:42.755Z,11.83
2019-04-05T21:28:16.241Z,13.17
2019-04-05T21:30:46.571Z,12.73
2019-04-05T21:33:15.784Z,12.10
2019-04-05T21:35:46.214Z,12.10
2019-04-05T21:38:16.429Z,11.83
2019-04-05T21:40:45.883Z,11.60
2019-04-05T21:43:15.310Z,12.77
2019-04-05T21:45:44.488Z,12.87
2019-04-05T21:48:14.038Z,11.23
2019-04-05T21:50:43.587Z,12.67
2019-04-05T21:53:12.975Z,12.23
2019-04-05T21:55:42.539Z,12.67
2019-04-05T21:58:12.287Z,12.07
2019-04-05T22:00:44.321Z,12.40
2019-04-05T22:03:14.694Z,12.43
2019-04-05T22:05:44.644Z,12.50
2019-04-05T22:08:14.062Z,12.67
2019-04-05T22:10:44.440Z,12.63
2019-04-05T22:13:13.913Z,11.43
2019-04-05T22:15:43.467Z,13.17
2019-04-05T22:18:12.951Z,12.63
2019-04-05T22:20:42.399Z,11.47
2019-04-05T22:23:17.648Z,11.63
2019-04-05T22:25:46.851Z,12.20
2019-04-05T22:28:16.256Z,11.73
2019-04-05T22:30:46.587Z,11.93
2019-04-05T22:33:16.139Z,12.20
2019-04-05T22:35:45.666Z,12.97
2019-04-05T22:38:15.107Z,11.40
2019-04-05T22:40:44.642Z,10.93
2019-04-05T22:43:14.102Z,11.13
2019-04-05T22:45:48.185Z,11.57
2019-04-05T22:48:17.664Z,11.77
2019-04-05T22:50:46.834Z,11.27
2019-04-05T22:53:18.335Z,11.57
2019-04-05T22:55:48.634Z,12.03
2019-04-05T22:58:18.920Z,12.00
2019-04-05T23:00:48.077Z,11.00
2019-04-05T23:03:18.800Z,11.73
2019-04-05T23:05:48.255Z,11.83
2019-04-05T23:08:18.586Z,12.43
2019-04-05T23:10:47.783Z,11.00
2019-04-05T23:13:19.234Z,11.53
2019-04-05T23:15:48.745Z,12.37
2019-04-05T23:18:19.101Z,11.17
2019-04-05T23:20:48.567Z,10.83
2019-04-05T23:23:18.063Z,12.33
2019-04-05T23:25:48.427Z,10.87
2019-04-05T23:28:17.962Z,11.77
2019-04-05T23:30:47.431Z,11.93
2019-04-05T23:33:16.967Z,11.83
2019-04-05T23:35:46.475Z,11.70
2019-04-05T23:38:15.915Z,12.23
2019-04-05T23:40:45.182Z,11.20
2019-04-05T23:43:16.691Z,11.80
2019-04-05T23:45:46.077Z,12.03
2019-04-05T23:48:18.533Z,12.03
2019-04-05T23:50:47.771Z,12.03
2019-04-05T23:53:19.121Z,10.97
2019-04-05T23:55:48.633Z,11.07
2019-04-05T23:58:18.116Z,12.50
